sensor_id;sensor_type;location;lat;lon;timestamp;P1;durP1;ratioP1;P2;durP2;ratioP2
3523;SDS011;1776;53.330;11.498;2024-01-30T00:00:02;7.10;;;4.50;;
3523;SDS011;1776;53.330;11.498;2024-01-30T00:02:29;9.27;;;5.40;;
3523;SDS011;1776;53.330;11.498;2024-01-30T00:04:54;9.70;;;4.40;;
3523;SDS011;1776;53.330;11.498;2024-01-30T00:07:19;7.10;;;4.80;;
3523;SDS011;1776;53.330;11.498;2024-01-30T00:09:46;7.47;;;4.47;;
3523;SDS011;1776;53.330;11.498;2024-01-30T00:12:12;9.83;;;4.13;;
3523;SDS011;1776;53.330;11.498;2024-01-30T00:14:37;8.13;;;5.20;;
3523;SDS011;1776;53.330;11.498;2024-01-30T00:17:03;6.30;;;4.70;;
3523;SDS011;1776;53.330;11.498;2024-01-30T00:19:28;7.60;;;5.43;;
3523;SDS011;1776;53.330;11.498;2024-01-30T00:21:53;7.67;;;4.73;;
3523;SDS011;1776;53.330;11.498;2024-01-30T00:24:19;6.87;;;5.00;;
3523;SDS011;1776;53.330;11.498;2024-01-30T00:26:44;11.77;;;5.80;;
3523;SDS011;1776;53.330;11.498;2024-01-30T00:29:10;7.30;;;4.97;;
3523;SDS011;1776;53.330;11.498;2024-01-30T00:31:35;10.33;;;5.53;;
3523;SDS011;1776;53.330;11.498;2024-01-30T00:34:00;9.93;;;6.63;;
3523;SDS011;1776;53.330;11.498;2024-01-30T00:36:26;7.27;;;6.27;;
3523;SDS011;1776;53.330;11.498;2024-01-30T00:38:51;13.13;;;5.70;;
3523;SDS011;1776;53.330;11.498;2024-01-30T00:41:19;10.93;;;5.90;;
3523;SDS011;1776;53.330;11.498;2024-01-30T00:43:44;7.27;;;4.77;;
3523;SDS011;1776;53.330;11.498;2024-01-30T00:46:10;11.40;;;4.97;;
3523;SDS011;1776;53.330;11.498;2024-01-30T00:48:35;8.27;;;6.07;;
3523;SDS011;1776;53.330;11.498;2024-01-30T00:51:00;8.67;;;5.83;;
3523;SDS011;1776;53.330;11.498;2024-01-30T00:53:26;7.33;;;4.57;;
3523;SDS011;1776;53.330;11.498;2024-01-30T00:55:51;7.63;;;4.97;;
3523;SDS011;1776;53.330;11.498;2024-01-30T00:58:16;9.97;;;5.40;;
3523;SDS011;1776;53.330;11.498;2024-01-30T01:00:44;5.93;;;5.03;;
3523;SDS011;1776;53.330;11.498;2024-01-30T01:03:09;8.43;;;5.60;;
3523;SDS011;1776;53.330;11.498;2024-01-30T01:05:34;8.90;;;5.30;;
3523;SDS011;1776;53.330;11.498;2024-01-30T01:08:00;8.40;;;4.87;;
3523;SDS011;1776;53.330;11.498;2024-01-30T01:10:25;5.60;;;4.23;;
3523;SDS011;1776;53.330;11.498;2024-01-30T01:12:50;5.90;;;4.57;;
3523;SDS011;1776;53.330;11.498;2024-01-30T01:15:15;8.30;;;4.40;;
3523;SDS011;1776;53.330;11.498;2024-01-30T01:17:41;12.03;;;5.40;;
3523;SDS011;1776;53.330;11.498;2024-01-30T01:20:06;6.67;;;4.93;;
3523;SDS011;1776;53.330;11.498;2024-01-30T01:22:32;8.47;;;5.57;;
3523;SDS011;1776;53.330;11.498;2024-01-30T01:24:59;5.70;;;4.47;;
3523;SDS011;1776;53.330;11.498;2024-01-30T01:27:24;8.30;;;5.60;;
3523;SDS011;1776;53.330;11.498;2024-01-30T01:29:50;7.67;;;4.80;;
3523;SDS011;1776;53.330;11.498;2024-01-30T01:32:15;5.97;;;5.13;;
3523;SDS011;1776;53.330;11.498;2024-01-30T01:34:41;7.20;;;5.00;;
3523;SDS011;1776;53.330;11.498;2024-01-30T01:37:06;9.07;;;6.30;;
3523;SDS011;1776;53.330;11.498;2024-01-30T01:39:32;7.20;;;4.83;;
3523;SDS011;1776;53.330;11.498;2024-01-30T01:41:57;6.53;;;5.60;;
3523;SDS011;1776;53.330;11.498;2024-01-30T01:44:22;8.10;;;5.90;;
3523;SDS011;1776;53.330;11.498;2024-01-30T01:46:48;10.50;;;4.97;;
3523;SDS011;1776;53.330;11.498;2024-01-30T01:49:13;9.80;;;5.30;;
3523;SDS011;1776;53.330;11.498;2024-01-30T01:51:39;8.93;;;5.33;;
3523;SDS011;1776;53.330;11.498;2024-01-30T01:54:06;8.10;;;4.87;;
3523;SDS011;1776;53.330;11.498;2024-01-30T01:56:32;8.83;;;5.00;;
3523;SDS011;1776;53.330;11.498;2024-01-30T01:58:59;7.20;;;4.83;;
3523;SDS011;1776;53.330;11.498;2024-01-30T02:01:29;6.80;;;4.80;;
3523;SDS011;1776;53.330;11.498;2024-01-30T02:03:56;5.57;;;4.20;;
3523;SDS011;1776;53.330;11.498;2024-01-30T02:06:21;8.67;;;4.50;;
3523;SDS011;1776;53.330;11.498;2024-01-30T02:08:46;8.37;;;5.17;;
3523;SDS011;1776;53.330;11.498;2024-01-30T02:11:11;4.83;;;4.20;;
3523;SDS011;1776;53.330;11.498;2024-01-30T02:13:37;7.10;;;4.43;;
3523;SDS011;1776;53.330;11.498;2024-01-30T02:16:02;8.20;;;4.87;;
3523;SDS011;1776;53.330;11.498;2024-01-30T02:18:27;9.10;;;5.80;;
3523;SDS011;1776;53.330;11.498;2024-01-30T02:20:53;8.30;;;5.60;;
3523;SDS011;1776;53.330;11.498;2024-01-30T02:23:21;7.53;;;5.30;;
3523;SDS011;1776;53.330;11.498;2024-01-30T02:25:49;10.23;;;5.20;;
3523;SDS011;1776;53.330;11.498;2024-01-30T02:28:14;7.77;;;5.77;;
3523;SDS011;1776;53.330;11.498;2024-01-30T02:30:42;7.93;;;5.57;;
3523;SDS011;1776;53.330;11.498;2024-01-30T02:33:07;9.07;;;5.27;;
3523;SDS011;1776;53.330;11.498;2024-01-30T02:35:33;9.67;;;5.27;;
3523;SDS011;1776;53.330;11.498;2024-01-30T02:37:59;8.80;;;5.87;;
3523;SDS011;1776;53.330;11.498;2024-01-30T02:40:24;7.40;;;5.40;;
3523;SDS011;1776;53.330;11.498;2024-01-30T02:42:49;10.60;;;5.90;;
3523;SDS011;1776;53.330;11.498;2024-01-30T02:45:14;10.37;;;5.53;;
3523;SDS011;1776;53.330;11.498;2024-01-30T02:47:40;8.50;;;5.30;;
3523;SDS011;1776;53.330;11.498;2024-01-30T02:50:05;7.80;;;6.23;;
3523;SDS011;1776;53.330;11.498;2024-01-30T02:52:31;8.20;;;6.00;;
3523;SDS011;1776;53.330;11.498;2024-01-30T02:54:56;10.10;;;6.20;;
3523;SDS011;1776;53.330;11.498;2024-01-30T02:57:22;9.30;;;5.87;;
3523;SDS011;1776;53.330;11.498;2024-01-30T02:59:47;7.37;;;6.13;;
3523;SDS011;1776;53.330;11.498;2024-01-30T03:02:12;10.20;;;6.80;;
3523;SDS011;1776;53.330;11.498;2024-01-30T03:04:40;8.33;;;5.80;;
3523;SDS011;1776;53.330;11.498;2024-01-30T03:07:05;8.10;;;5.60;;
3523;SDS011;1776;53.330;11.498;2024-01-30T03:09:31;7.63;;;5.87;;
3523;SDS011;1776;53.330;11.498;2024-01-30T03:11:56;13.97;;;6.07;;
3523;SDS011;1776;53.330;11.498;2024-01-30T03:14:21;7.97;;;5.93;;
3523;SDS011;1776;53.330;11.498;2024-01-30T03:16:47;10.73;;;5.30;;
3523;SDS011;1776;53.330;11.498;2024-01-30T03:19:12;8.63;;;6.13;;
3523;SDS011;1776;53.330;11.498;2024-01-30T03:21:37;8.43;;;5.87;;
3523;SDS011;1776;53.330;11.498;2024-01-30T03:24:03;9.93;;;5.67;;
3523;SDS011;1776;53.330;11.498;2024-01-30T03:26:28;12.27;;;5.67;;
3523;SDS011;1776;53.330;11.498;2024-01-30T03:28:53;7.13;;;4.80;;
3523;SDS011;1776;53.330;11.498;2024-01-30T03:31:18;8.63;;;5.20;;
3523;SDS011;1776;53.330;11.498;2024-01-30T03:33:44;6.50;;;5.23;;
3523;SDS011;1776;53.330;11.498;2024-01-30T03:36:09;7.30;;;5.60;;
3523;SDS011;1776;53.330;11.498;2024-01-30T03:38:34;8.27;;;5.80;;
3523;SDS011;1776;53.330;11.498;2024-01-30T03:41:00;9.80;;;6.67;;
3523;SDS011;1776;53.330;11.498;2024-01-30T03:43:25;13.57;;;7.37;;
3523;SDS011;1776;53.330;11.498;2024-01-30T03:45:51;9.50;;;5.90;;
3523;SDS011;1776;53.330;11.498;2024-01-30T03:48:16;23.30;;;7.43;;
3523;SDS011;1776;53.330;11.498;2024-01-30T03:50:41;11.00;;;6.80;;
3523;SDS011;1776;53.330;11.498;2024-01-30T03:53:07;7.30;;;5.57;;
3523;SDS011;1776;53.330;11.498;2024-01-30T03:55:32;10.03;;;7.20;;
3523;SDS011;1776;53.330;11.498;2024-01-30T03:57:57;8.57;;;6.60;;
3523;SDS011;1776;53.330;11.498;2024-01-30T04:00:22;10.53;;;6.87;;
3523;SDS011;1776;53.330;11.498;2024-01-30T04:02:48;13.60;;;6.87;;
3523;SDS011;1776;53.330;11.498;2024-01-30T04:05:13;10.97;;;6.50;;
3523;SDS011;1776;53.330;11.498;2024-01-30T04:07:38;10.90;;;6.70;;
3523;SDS011;1776;53.330;11.498;2024-01-30T04:10:04;9.23;;;5.90;;
3523;SDS011;1776;53.330;11.498;2024-01-30T04:12:31;8.97;;;5.90;;
3523;SDS011;1776;53.330;11.498;2024-01-30T04:14:56;11.50;;;7.30;;
3523;SDS011;1776;53.330;11.498;2024-01-30T04:17:22;9.57;;;6.80;;
3523;SDS011;1776;53.330;11.498;2024-01-30T04:19:47;10.60;;;6.90;;
3523;SDS011;1776;53.330;11.498;2024-01-30T04:22:12;7.63;;;5.83;;
3523;SDS011;1776;53.330;11.498;2024-01-30T04:24:37;8.67;;;6.47;;
3523;SDS011;1776;53.330;11.498;2024-01-30T04:27:03;7.90;;;6.73;;
3523;SDS011;1776;53.330;11.498;2024-01-30T04:29:28;9.77;;;7.03;;
3523;SDS011;1776;53.330;11.498;2024-01-30T04:31:53;10.80;;;7.30;;
3523;SDS011;1776;53.330;11.498;2024-01-30T04:34:19;12.90;;;8.30;;
3523;SDS011;1776;53.330;11.498;2024-01-30T04:36:44;13.13;;;8.10;;
3523;SDS011;1776;53.330;11.498;2024-01-30T04:39:10;12.17;;;7.87;;
3523;SDS011;1776;53.330;11.498;2024-01-30T04:41:35;8.80;;;6.83;;
3523;SDS011;1776;53.330;11.498;2024-01-30T04:44:00;10.90;;;7.27;;
3523;SDS011;1776;53.330;11.498;2024-01-30T04:46:26;9.10;;;6.57;;
3523;SDS011;1776;53.330;11.498;2024-01-30T04:48:51;8.13;;;5.93;;
3523;SDS011;1776;53.330;11.498;2024-01-30T04:51:16;11.77;;;6.67;;
3523;SDS011;1776;53.330;11.498;2024-01-30T04:53:42;9.40;;;6.80;;
3523;SDS011;1776;53.330;11.498;2024-01-30T04:56:07;6.60;;;5.70;;
3523;SDS011;1776;53.330;11.498;2024-01-30T04:58:32;10.53;;;5.90;;
3523;SDS011;1776;53.330;11.498;2024-01-30T05:00:57;8.60;;;6.33;;
3523;SDS011;1776;53.330;11.498;2024-01-30T05:03:23;13.50;;;7.40;;
3523;SDS011;1776;53.330;11.498;2024-01-30T05:05:49;8.90;;;7.80;;
3523;SDS011;1776;53.330;11.498;2024-01-30T05:08:14;10.30;;;6.77;;
3523;SDS011;1776;53.330;11.498;2024-01-30T05:10:39;7.30;;;5.40;;
3523;SDS011;1776;53.330;11.498;2024-01-30T05:13:04;10.80;;;7.23;;
3523;SDS011;1776;53.330;11.498;2024-01-30T05:15:30;10.23;;;7.40;;
3523;SDS011;1776;53.330;11.498;2024-01-30T05:17:55;10.33;;;6.60;;
3523;SDS011;1776;53.330;11.498;2024-01-30T05:20:20;9.83;;;7.40;;
3523;SDS011;1776;53.330;11.498;2024-01-30T05:22:46;9.67;;;6.90;;
3523;SDS011;1776;53.330;11.498;2024-01-30T05:25:12;10.80;;;6.67;;
3523;SDS011;1776;53.330;11.498;2024-01-30T05:27:37;8.70;;;7.17;;
3523;SDS011;1776;53.330;11.498;2024-01-30T05:30:03;11.30;;;7.10;;
3523;SDS011;1776;53.330;11.498;2024-01-30T05:32:30;14.17;;;8.10;;
3523;SDS011;1776;53.330;11.498;2024-01-30T05:34:55;8.97;;;7.13;;
3523;SDS011;1776;53.330;11.498;2024-01-30T05:37:20;10.80;;;7.00;;
3523;SDS011;1776;53.330;11.498;2024-01-30T05:39:46;10.33;;;7.33;;
3523;SDS011;1776;53.330;11.498;2024-01-30T05:42:11;13.10;;;7.87;;
3523;SDS011;1776;53.330;11.498;2024-01-30T05:44:36;15.70;;;8.70;;
3523;SDS011;1776;53.330;11.498;2024-01-30T05:47:02;17.60;;;12.07;;
3523;SDS011;1776;53.330;11.498;2024-01-30T05:49:27;20.10;;;11.20;;
3523;SDS011;1776;53.330;11.498;2024-01-30T05:51:53;16.60;;;10.33;;
3523;SDS011;1776;53.330;11.498;2024-01-30T05:54:19;12.00;;;9.00;;
3523;SDS011;1776;53.330;11.498;2024-01-30T05:56:44;14.13;;;8.67;;
3523;SDS011;1776;53.330;11.498;2024-01-30T05:59:09;12.00;;;8.40;;
3523;SDS011;1776;53.330;11.498;2024-01-30T06:01:34;13.70;;;8.33;;
3523;SDS011;1776;53.330;11.498;2024-01-30T06:04:00;11.90;;;8.57;;
3523;SDS011;1776;53.330;11.498;2024-01-30T06:06:26;15.50;;;9.50;;
3523;SDS011;1776;53.330;11.498;2024-01-30T06:08:51;17.30;;;8.90;;
3523;SDS011;1776;53.330;11.498;2024-01-30T06:11:17;14.20;;;10.53;;
3523;SDS011;1776;53.330;11.498;2024-01-30T06:13:42;15.73;;;9.60;;
3523;SDS011;1776;53.330;11.498;2024-01-30T06:16:10;13.00;;;9.83;;
3523;SDS011;1776;53.330;11.498;2024-01-30T06:18:36;16.70;;;9.17;;
3523;SDS011;1776;53.330;11.498;2024-01-30T06:21:01;13.90;;;10.73;;
3523;SDS011;1776;53.330;11.498;2024-01-30T06:23:27;12.77;;;9.57;;
3523;SDS011;1776;53.330;11.498;2024-01-30T06:25:52;12.20;;;8.87;;
3523;SDS011;1776;53.330;11.498;2024-01-30T06:28:17;12.20;;;7.83;;
3523;SDS011;1776;53.330;11.498;2024-01-30T06:30:43;15.50;;;9.80;;
3523;SDS011;1776;53.330;11.498;2024-01-30T06:33:08;15.60;;;10.50;;
3523;SDS011;1776;53.330;11.498;2024-01-30T06:35:36;13.43;;;9.77;;
3523;SDS011;1776;53.330;11.498;2024-01-30T06:38:04;17.57;;;11.00;;
3523;SDS011;1776;53.330;11.498;2024-01-30T06:40:30;16.20;;;9.93;;
3523;SDS011;1776;53.330;11.498;2024-01-30T06:42:55;13.37;;;9.77;;
3523;SDS011;1776;53.330;11.498;2024-01-30T06:45:20;15.03;;;9.50;;
3523;SDS011;1776;53.330;11.498;2024-01-30T06:47:45;11.33;;;8.20;;
3523;SDS011;1776;53.330;11.498;2024-01-30T06:50:11;16.63;;;9.77;;
3523;SDS011;1776;53.330;11.498;2024-01-30T06:52:36;14.97;;;9.37;;
3523;SDS011;1776;53.330;11.498;2024-01-30T06:55:01;16.80;;;10.80;;
3523;SDS011;1776;53.330;11.498;2024-01-30T06:57:27;17.47;;;9.67;;
3523;SDS011;1776;53.330;11.498;2024-01-30T06:59:54;14.53;;;8.90;;
3523;SDS011;1776;53.330;11.498;2024-01-30T07:02:19;17.10;;;9.27;;
3523;SDS011;1776;53.330;11.498;2024-01-30T07:04:44;18.53;;;10.40;;
3523;SDS011;1776;53.330;11.498;2024-01-30T07:07:10;18.87;;;11.70;;
3523;SDS011;1776;53.330;11.498;2024-01-30T07:09:37;12.80;;;8.53;;
3523;SDS011;1776;53.330;11.498;2024-01-30T07:12:03;13.23;;;8.70;;
3523;SDS011;1776;53.330;11.498;2024-01-30T07:14:29;15.33;;;9.57;;
3523;SDS011;1776;53.330;11.498;2024-01-30T07:16:54;13.93;;;9.17;;
3523;SDS011;1776;53.330;11.498;2024-01-30T07:19:19;11.07;;;8.60;;
3523;SDS011;1776;53.330;11.498;2024-01-30T07:21:44;17.53;;;9.93;;
3523;SDS011;1776;53.330;11.498;2024-01-30T07:24:11;11.97;;;9.13;;
3523;SDS011;1776;53.330;11.498;2024-01-30T07:26:37;11.10;;;8.70;;
3523;SDS011;1776;53.330;11.498;2024-01-30T07:29:02;16.30;;;9.57;;
3523;SDS011;1776;53.330;11.498;2024-01-30T07:31:28;11.40;;;8.73;;
3523;SDS011;1776;53.330;11.498;2024-01-30T07:33:53;12.13;;;8.50;;
3523;SDS011;1776;53.330;11.498;2024-01-30T07:36:19;14.70;;;10.97;;
3523;SDS011;1776;53.330;11.498;2024-01-30T07:38:45;14.97;;;9.77;;
3523;SDS011;1776;53.330;11.498;2024-01-30T07:41:10;13.70;;;11.63;;
3523;SDS011;1776;53.330;11.498;2024-01-30T07:43:35;10.87;;;9.30;;
3523;SDS011;1776;53.330;11.498;2024-01-30T07:46:00;14.80;;;9.63;;
3523;SDS011;1776;53.330;11.498;2024-01-30T07:48:27;15.83;;;9.60;;
3523;SDS011;1776;53.330;11.498;2024-01-30T07:50:53;18.03;;;11.90;;
3523;SDS011;1776;53.330;11.498;2024-01-30T07:53:18;15.40;;;11.50;;
3523;SDS011;1776;53.330;11.498;2024-01-30T07:55:43;12.40;;;9.90;;
3523;SDS011;1776;53.330;11.498;2024-01-30T07:58:11;15.60;;;11.30;;
3523;SDS011;1776;53.330;11.498;2024-01-30T08:00:37;17.87;;;11.53;;
3523;SDS011;1776;53.330;11.498;2024-01-30T08:03:02;17.30;;;9.37;;
3523;SDS011;1776;53.330;11.498;2024-01-30T08:05:28;12.73;;;9.97;;
3523;SDS011;1776;53.330;11.498;2024-01-30T08:07:53;15.17;;;9.20;;
3523;SDS011;1776;53.330;11.498;2024-01-30T08:10:18;15.27;;;10.33;;
3523;SDS011;1776;53.330;11.498;2024-01-30T08:12:45;16.00;;;11.20;;
3523;SDS011;1776;53.330;11.498;2024-01-30T08:15:11;17.30;;;11.77;;
3523;SDS011;1776;53.330;11.498;2024-01-30T08:17:39;18.53;;;11.90;;
3523;SDS011;1776;53.330;11.498;2024-01-30T08:20:05;22.27;;;13.87;;
3523;SDS011;1776;53.330;11.498;2024-01-30T08:22:33;19.50;;;13.00;;
3523;SDS011;1776;53.330;11.498;2024-01-30T08:24:58;19.60;;;11.77;;
3523;SDS011;1776;53.330;11.498;2024-01-30T08:27:23;20.80;;;10.80;;
3523;SDS011;1776;53.330;11.498;2024-01-30T08:29:48;17.87;;;12.27;;
3523;SDS011;1776;53.330;11.498;2024-01-30T08:32:15;18.13;;;11.30;;
3523;SDS011;1776;53.330;11.498;2024-01-30T08:34:40;18.30;;;11.90;;
3523;SDS011;1776;53.330;11.498;2024-01-30T08:37:05;20.87;;;12.90;;
3523;SDS011;1776;53.330;11.498;2024-01-30T08:39:30;16.30;;;10.47;;
3523;SDS011;1776;53.330;11.498;2024-01-30T08:41:56;17.27;;;10.93;;
3523;SDS011;1776;53.330;11.498;2024-01-30T08:44:21;16.50;;;11.70;;
3523;SDS011;1776;53.330;11.498;2024-01-30T08:46:46;16.07;;;10.47;;
3523;SDS011;1776;53.330;11.498;2024-01-30T08:49:12;21.20;;;11.40;;
3523;SDS011;1776;53.330;11.498;2024-01-30T08:51:38;19.10;;;10.43;;
3523;SDS011;1776;53.330;11.498;2024-01-30T08:54:04;14.43;;;9.93;;
3523;SDS011;1776;53.330;11.498;2024-01-30T08:56:29;19.93;;;10.87;;
3523;SDS011;1776;53.330;11.498;2024-01-30T08:58:55;17.20;;;11.07;;
3523;SDS011;1776;53.330;11.498;2024-01-30T09:01:20;16.37;;;12.03;;
3523;SDS011;1776;53.330;11.498;2024-01-30T09:03:45;18.87;;;11.43;;
3523;SDS011;1776;53.330;11.498;2024-01-30T09:06:11;13.07;;;10.07;;
3523;SDS011;1776;53.330;11.498;2024-01-30T09:08:37;18.13;;;11.10;;
3523;SDS011;1776;53.330;11.498;2024-01-30T09:11:09;13.30;;;10.50;;
3523;SDS011;1776;53.330;11.498;2024-01-30T09:13:38;17.07;;;10.90;;
3523;SDS011;1776;53.330;11.498;2024-01-30T09:16:04;12.13;;;9.77;;
3523;SDS011;1776;53.330;11.498;2024-01-30T09:18:30;13.87;;;8.77;;
3523;SDS011;1776;53.330;11.498;2024-01-30T09:20:55;16.33;;;10.20;;
3523;SDS011;1776;53.330;11.498;2024-01-30T09:23:20;12.73;;;9.77;;
3523;SDS011;1776;53.330;11.498;2024-01-30T09:25:46;15.80;;;10.07;;
3523;SDS011;1776;53.330;11.498;2024-01-30T09:28:12;19.20;;;11.53;;
3523;SDS011;1776;53.330;11.498;2024-01-30T09:30:37;13.57;;;9.77;;
3523;SDS011;1776;53.330;11.498;2024-01-30T09:33:02;14.10;;;10.03;;
3523;SDS011;1776;53.330;11.498;2024-01-30T09:35:28;15.17;;;11.00;;
3523;SDS011;1776;53.330;11.498;2024-01-30T09:37:54;14.87;;;10.73;;
3523;SDS011;1776;53.330;11.498;2024-01-30T09:40:20;16.60;;;10.17;;
3523;SDS011;1776;53.330;11.498;2024-01-30T09:42:46;20.70;;;10.43;;
3523;SDS011;1776;53.330;11.498;2024-01-30T09:45:15;23.33;;;13.60;;
3523;SDS011;1776;53.330;11.498;2024-01-30T09:47:43;19.93;;;11.77;;
3523;SDS011;1776;53.330;11.498;2024-01-30T09:50:13;19.30;;;9.50;;
3523;SDS011;1776;53.330;11.498;2024-01-30T09:52:39;13.23;;;9.27;;
3523;SDS011;1776;53.330;11.498;2024-01-30T09:55:05;17.20;;;10.23;;
3523;SDS011;1776;53.330;11.498;2024-01-30T09:57:31;15.83;;;10.27;;
3523;SDS011;1776;53.330;11.498;2024-01-30T09:59:57;16.10;;;10.33;;
3523;SDS011;1776;53.330;11.498;2024-01-30T10:02:22;15.90;;;10.93;;
3523;SDS011;1776;53.330;11.498;2024-01-30T10:04:48;14.60;;;9.63;;
3523;SDS011;1776;53.330;11.498;2024-01-30T10:07:15;12.00;;;9.60;;
3523;SDS011;1776;53.330;11.498;2024-01-30T10:09:41;13.50;;;9.80;;
3523;SDS011;1776;53.330;11.498;2024-01-30T10:12:07;13.00;;;9.90;;
3523;SDS011;1776;53.330;11.498;2024-01-30T10:14:34;18.17;;;11.10;;
3523;SDS011;1776;53.330;11.498;2024-01-30T10:17:03;12.70;;;9.67;;
3523;SDS011;1776;53.330;11.498;2024-01-30T10:19:29;16.90;;;11.50;;
3523;SDS011;1776;53.330;11.498;2024-01-30T10:21:54;14.87;;;10.47;;
3523;SDS011;1776;53.330;11.498;2024-01-30T10:24:23;17.33;;;11.30;;
3523;SDS011;1776;53.330;11.498;2024-01-30T10:26:49;17.40;;;11.03;;
3523;SDS011;1776;53.330;11.498;2024-01-30T10:29:14;12.30;;;10.50;;
3523;SDS011;1776;53.330;11.498;2024-01-30T10:31:39;14.47;;;10.80;;
3523;SDS011;1776;53.330;11.498;2024-01-30T10:34:05;17.43;;;10.90;;
3523;SDS011;1776;53.330;11.498;2024-01-30T10:36:30;19.10;;;10.60;;
3523;SDS011;1776;53.330;11.498;2024-01-30T10:39:02;16.80;;;12.10;;
3523;SDS011;1776;53.330;11.498;2024-01-30T10:41:31;17.40;;;11.90;;
3523;SDS011;1776;53.330;11.498;2024-01-30T10:44:09;15.37;;;11.50;;
3523;SDS011;1776;53.330;11.498;2024-01-30T10:46:37;15.50;;;11.47;;
3523;SDS011;1776;53.330;11.498;2024-01-30T10:49:03;13.10;;;10.83;;
3523;SDS011;1776;53.330;11.498;2024-01-30T10:51:29;19.77;;;13.60;;
3523;SDS011;1776;53.330;11.498;2024-01-30T10:53:56;17.50;;;12.57;;
3523;SDS011;1776;53.330;11.498;2024-01-30T10:56:22;19.17;;;11.57;;
3523;SDS011;1776;53.330;11.498;2024-01-30T10:58:52;15.90;;;11.30;;
3523;SDS011;1776;53.330;11.498;2024-01-30T11:01:18;14.40;;;10.70;;
3523;SDS011;1776;53.330;11.498;2024-01-30T11:03:45;14.97;;;11.00;;
3523;SDS011;1776;53.330;11.498;2024-01-30T11:06:11;13.33;;;11.10;;
3523;SDS011;1776;53.330;11.498;2024-01-30T11:08:43;11.53;;;9.50;;
3523;SDS011;1776;53.330;11.498;2024-01-30T11:11:09;14.17;;;10.70;;
3523;SDS011;1776;53.330;11.498;2024-01-30T11:13:34;17.50;;;11.50;;
3523;SDS011;1776;53.330;11.498;2024-01-30T11:16:00;18.80;;;10.53;;
3523;SDS011;1776;53.330;11.498;2024-01-30T11:18:30;23.87;;;10.60;;
3523;SDS011;1776;53.330;11.498;2024-01-30T11:20:57;15.03;;;10.57;;
3523;SDS011;1776;53.330;11.498;2024-01-30T11:23:23;14.10;;;10.70;;
3523;SDS011;1776;53.330;11.498;2024-01-30T11:25:51;15.73;;;10.30;;
3523;SDS011;1776;53.330;11.498;2024-01-30T11:28:21;14.90;;;10.53;;
3523;SDS011;1776;53.330;11.498;2024-01-30T11:30:47;15.10;;;10.30;;
3523;SDS011;1776;53.330;11.498;2024-01-30T11:33:15;14.70;;;11.60;;
3523;SDS011;1776;53.330;11.498;2024-01-30T11:35:52;12.87;;;10.27;;
3523;SDS011;1776;53.330;11.498;2024-01-30T11:38:17;18.00;;;11.63;;
3523;SDS011;1776;53.330;11.498;2024-01-30T11:40:43;15.93;;;10.83;;
3523;SDS011;1776;53.330;11.498;2024-01-30T11:43:08;14.20;;;10.63;;
3523;SDS011;1776;53.330;11.498;2024-01-30T11:45:34;14.13;;;10.43;;
3523;SDS011;1776;53.330;11.498;2024-01-30T11:48:00;15.30;;;10.90;;
3523;SDS011;1776;53.330;11.498;2024-01-30T11:50:28;15.30;;;11.30;;
3523;SDS011;1776;53.330;11.498;2024-01-30T11:52:54;14.73;;;11.00;;
3523;SDS011;1776;53.330;11.498;2024-01-30T11:55:20;12.97;;;9.20;;
3523;SDS011;1776;53.330;11.498;2024-01-30T11:57:45;10.57;;;9.43;;
3523;SDS011;1776;53.330;11.498;2024-01-30T12:00:16;15.50;;;9.57;;
3523;SDS011;1776;53.330;11.498;2024-01-30T12:02:43;19.43;;;10.53;;
3523;SDS011;1776;53.330;11.498;2024-01-30T12:05:09;16.53;;;9.80;;
3523;SDS011;1776;53.330;11.498;2024-01-30T12:07:36;19.30;;;11.17;;
3523;SDS011;1776;53.330;11.498;2024-01-30T12:10:01;17.57;;;11.17;;
3523;SDS011;1776;53.330;11.498;2024-01-30T12:12:28;15.30;;;11.23;;
3523;SDS011;1776;53.330;11.498;2024-01-30T12:14:54;15.73;;;10.17;;
3523;SDS011;1776;53.330;11.498;2024-01-30T12:17:30;15.43;;;9.83;;
3523;SDS011;1776;53.330;11.498;2024-01-30T12:20:06;17.73;;;9.40;;
3523;SDS011;1776;53.330;11.498;2024-01-30T12:22:37;16.90;;;9.30;;
3523;SDS011;1776;53.330;11.498;2024-01-30T12:25:04;17.37;;;9.70;;
3523;SDS011;1776;53.330;11.498;2024-01-30T12:27:32;13.97;;;9.77;;
3523;SDS011;1776;53.330;11.498;2024-01-30T12:29:57;18.63;;;10.57;;
3523;SDS011;1776;53.330;11.498;2024-01-30T12:32:23;14.87;;;10.90;;
3523;SDS011;1776;53.330;11.498;2024-01-30T12:34:48;13.90;;;10.50;;
3523;SDS011;1776;53.330;11.498;2024-01-30T12:37:13;14.60;;;9.70;;
3523;SDS011;1776;53.330;11.498;2024-01-30T12:39:39;14.00;;;10.33;;
3523;SDS011;1776;53.330;11.498;2024-01-30T12:42:05;16.33;;;11.10;;
3523;SDS011;1776;53.330;11.498;2024-01-30T12:44:30;16.33;;;11.00;;
3523;SDS011;1776;53.330;11.498;2024-01-30T12:46:56;13.40;;;9.03;;
3523;SDS011;1776;53.330;11.498;2024-01-30T12:49:21;13.90;;;10.80;;
3523;SDS011;1776;53.330;11.498;2024-01-30T12:51:47;14.87;;;9.97;;
3523;SDS011;1776;53.330;11.498;2024-01-30T12:54:12;14.60;;;9.63;;
3523;SDS011;1776;53.330;11.498;2024-01-30T12:56:38;12.10;;;10.40;;
3523;SDS011;1776;53.330;11.498;2024-01-30T12:59:03;16.10;;;10.40;;
3523;SDS011;1776;53.330;11.498;2024-01-30T13:01:28;14.37;;;10.10;;
3523;SDS011;1776;53.330;11.498;2024-01-30T13:03:54;17.07;;;11.03;;
3523;SDS011;1776;53.330;11.498;2024-01-30T13:06:19;17.33;;;10.60;;
3523;SDS011;1776;53.330;11.498;2024-01-30T13:08:44;14.67;;;10.30;;
3523;SDS011;1776;53.330;11.498;2024-01-30T13:11:10;15.50;;;10.33;;
3523;SDS011;1776;53.330;11.498;2024-01-30T13:13:37;15.10;;;11.60;;
3523;SDS011;1776;53.330;11.498;2024-01-30T13:16:02;13.93;;;9.63;;
3523;SDS011;1776;53.330;11.498;2024-01-30T13:18:28;11.33;;;8.40;;
3523;SDS011;1776;53.330;11.498;2024-01-30T13:20:53;18.87;;;10.47;;
3523;SDS011;1776;53.330;11.498;2024-01-30T13:23:18;15.20;;;10.07;;
3523;SDS011;1776;53.330;11.498;2024-01-30T13:25:43;14.60;;;10.40;;
3523;SDS011;1776;53.330;11.498;2024-01-30T13:28:09;17.17;;;10.73;;
3523;SDS011;1776;53.330;11.498;2024-01-30T13:30:34;14.90;;;10.67;;
3523;SDS011;1776;53.330;11.498;2024-01-30T13:32:59;14.70;;;10.73;;
3523;SDS011;1776;53.330;11.498;2024-01-30T13:35:24;19.50;;;12.97;;
3523;SDS011;1776;53.330;11.498;2024-01-30T13:37:50;16.87;;;10.57;;
3523;SDS011;1776;53.330;11.498;2024-01-30T13:40:15;14.10;;;10.80;;
3523;SDS011;1776;53.330;11.498;2024-01-30T13:42:41;18.30;;;10.33;;
3523;SDS011;1776;53.330;11.498;2024-01-30T13:45:06;14.17;;;9.50;;
3523;SDS011;1776;53.330;11.498;2024-01-30T13:47:34;16.50;;;10.40;;
3523;SDS011;1776;53.330;11.498;2024-01-30T13:49:59;15.90;;;10.43;;
3523;SDS011;1776;53.330;11.498;2024-01-30T13:52:25;9.50;;;8.50;;
3523;SDS011;1776;53.330;11.498;2024-01-30T13:54:50;15.47;;;10.83;;
3523;SDS011;1776;53.330;11.498;2024-01-30T13:57:15;17.57;;;10.80;;
3523;SDS011;1776;53.330;11.498;2024-01-30T13:59:40;16.33;;;10.60;;
3523;SDS011;1776;53.330;11.498;2024-01-30T14:02:06;12.20;;;9.77;;
3523;SDS011;1776;53.330;11.498;2024-01-30T14:04:33;14.17;;;9.33;;
3523;SDS011;1776;53.330;11.498;2024-01-30T14:06:58;13.10;;;9.40;;
3523;SDS011;1776;53.330;11.498;2024-01-30T14:09:23;16.07;;;11.30;;
3523;SDS011;1776;53.330;11.498;2024-01-30T14:11:49;16.80;;;11.00;;
3523;SDS011;1776;53.330;11.498;2024-01-30T14:14:14;18.50;;;11.33;;
3523;SDS011;1776;53.330;11.498;2024-01-30T14:16:39;15.63;;;11.23;;
3523;SDS011;1776;53.330;11.498;2024-01-30T14:19:04;15.20;;;10.50;;
3523;SDS011;1776;53.330;11.498;2024-01-30T14:21:30;15.20;;;10.50;;
3523;SDS011;1776;53.330;11.498;2024-01-30T14:23:55;16.23;;;10.67;;
3523;SDS011;1776;53.330;11.498;2024-01-30T14:26:21;15.63;;;10.60;;
3523;SDS011;1776;53.330;11.498;2024-01-30T14:28:46;18.30;;;11.97;;
3523;SDS011;1776;53.330;11.498;2024-01-30T14:31:11;16.87;;;11.57;;
3523;SDS011;1776;53.330;11.498;2024-01-30T14:33:36;19.13;;;12.83;;
3523;SDS011;1776;53.330;11.498;2024-01-30T14:36:02;15.67;;;11.00;;